sensor_id;sensor_type;location;lat;lon;timestamp;P1;durP1;ratioP1;P2;durP2;ratioP2
74528;SDS011;63009;52.584;5.932;2022-09-03T00:01:00;7.10;;;3.53;;
74528;SDS011;63009;52.584;5.932;2022-09-03T00:03:51;8.35;;;3.28;;
74528;SDS011;63009;52.584;5.932;2022-09-03T00:06:22;8.27;;;4.00;;
74528;SDS011;63009;52.584;5.932;2022-09-03T00:11:25;9.32;;;3.55;;
74528;SDS011;63009;52.584;5.932;2022-09-03T00:13:58;7.93;;;3.88;;
74528;SDS011;63009;52.584;5.932;2022-09-03T00:16:44;6.68;;;3.15;;
74528;SDS011;63009;52.584;5.932;2022-09-03T00:19:15;7.65;;;3.78;;
74528;SDS011;63009;52.584;5.932;2022-09-03T00:21:51;6.53;;;3.08;;
74528;SDS011;63009;52.584;5.932;2022-09-03T00:24:22;6.65;;;3.30;;
74528;SDS011;63009;52.584;5.932;2022-09-03T00:26:53;7.95;;;3.75;;
74528;SDS011;63009;52.584;5.932;2022-09-03T00:29:24;7.45;;;3.00;;
74528;SDS011;63009;52.584;5.932;2022-09-03T00:31:55;6.10;;;3.22;;
74528;SDS011;63009;52.584;5.932;2022-09-03T00:34:29;7.07;;;3.05;;
74528;SDS011;63009;52.584;5.932;2022-09-03T00:36:59;7.00;;;3.38;;
74528;SDS011;63009;52.584;5.932;2022-09-03T00:39:26;7.30;;;3.17;;
74528;SDS011;63009;52.584;5.932;2022-09-03T00:47:23;7.70;;;3.35;;
74528;SDS011;63009;52.584;5.932;2022-09-03T00:55:29;9.90;;;3.63;;
74528;SDS011;63009;52.584;5.932;2022-09-03T01:00:30;7.03;;;3.70;;
74528;SDS011;63009;52.584;5.932;2022-09-03T01:03:38;8.43;;;3.70;;
74528;SDS011;63009;52.584;5.932;2022-09-03T01:24:56;5.95;;;2.65;;
74528;SDS011;63009;52.584;5.932;2022-09-03T01:30:37;7.25;;;3.00;;
74528;SDS011;63009;52.584;5.932;2022-09-03T01:36:10;6.65;;;2.63;;
74528;SDS011;63009;52.584;5.932;2022-09-03T01:38:42;7.18;;;2.70;;
74528;SDS011;63009;52.584;5.932;2022-09-03T01:52:45;8.75;;;3.38;;
74528;SDS011;63009;52.584;5.932;2022-09-03T01:55:30;6.28;;;3.00;;
74528;SDS011;63009;52.584;5.932;2022-09-03T01:58:15;7.07;;;3.95;;
74528;SDS011;63009;52.584;5.932;2022-09-03T02:00:46;6.45;;;2.78;;
74528;SDS011;63009;52.584;5.932;2022-09-03T02:03:15;8.75;;;3.42;;
74528;SDS011;63009;52.584;5.932;2022-09-03T02:05:41;9.15;;;3.20;;
74528;SDS011;63009;52.584;5.932;2022-09-03T02:08:08;7.97;;;3.20;;
74528;SDS011;63009;52.584;5.932;2022-09-03T02:10:46;7.35;;;3.10;;
74528;SDS011;63009;52.584;5.932;2022-09-03T02:13:20;7.85;;;3.15;;
74528;SDS011;63009;52.584;5.932;2022-09-03T02:15:50;7.57;;;2.75;;
74528;SDS011;63009;52.584;5.932;2022-09-03T02:18:18;6.13;;;2.63;;
74528;SDS011;63009;52.584;5.932;2022-09-03T02:20:45;7.25;;;3.75;;
74528;SDS011;63009;52.584;5.932;2022-09-03T02:23:12;6.65;;;2.65;;
74528;SDS011;63009;52.584;5.932;2022-09-03T02:25:40;6.75;;;2.65;;
74528;SDS011;63009;52.584;5.932;2022-09-03T02:28:09;6.28;;;3.00;;
74528;SDS011;63009;52.584;5.932;2022-09-03T02:30:35;9.90;;;3.55;;
74528;SDS011;63009;52.584;5.932;2022-09-03T02:33:01;6.50;;;2.72;;
74528;SDS011;63009;52.584;5.932;2022-09-03T02:35:27;6.30;;;2.78;;
74528;SDS011;63009;52.584;5.932;2022-09-03T02:37:52;6.82;;;2.40;;
74528;SDS011;63009;52.584;5.932;2022-09-03T02:40:18;6.97;;;2.70;;
74528;SDS011;63009;52.584;5.932;2022-09-03T02:42:43;8.53;;;3.30;;
74528;SDS011;63009;52.584;5.932;2022-09-03T02:47:55;10.88;;;4.07;;
74528;SDS011;63009;52.584;5.932;2022-09-03T02:50:23;8.38;;;2.80;;
74528;SDS011;63009;52.584;5.932;2022-09-03T02:52:49;6.40;;;2.60;;
74528;SDS011;63009;52.584;5.932;2022-09-03T02:55:15;7.22;;;2.72;;
74528;SDS011;63009;52.584;5.932;2022-09-03T02:57:41;6.20;;;2.80;;
74528;SDS011;63009;52.584;5.932;2022-09-03T03:00:07;6.95;;;2.80;;
74528;SDS011;63009;52.584;5.932;2022-09-03T03:02:33;6.40;;;2.88;;
74528;SDS011;63009;52.584;5.932;2022-09-03T03:04:58;8.15;;;2.55;;
74528;SDS011;63009;52.584;5.932;2022-09-03T03:07:23;6.70;;;2.45;;
74528;SDS011;63009;52.584;5.932;2022-09-03T03:09:50;6.50;;;2.58;;
74528;SDS011;63009;52.584;5.932;2022-09-03T03:12:16;6.53;;;2.40;;
74528;SDS011;63009;52.584;5.932;2022-09-03T03:14:41;7.28;;;3.00;;
74528;SDS011;63009;52.584;5.932;2022-09-03T03:17:07;7.63;;;2.70;;
74528;SDS011;63009;52.584;5.932;2022-09-03T03:19:32;7.43;;;2.97;;
74528;SDS011;63009;52.584;5.932;2022-09-03T03:21:58;6.32;;;2.58;;
74528;SDS011;63009;52.584;5.932;2022-09-03T03:24:23;6.37;;;2.80;;
74528;SDS011;63009;52.584;5.932;2022-09-03T03:26:48;5.97;;;2.90;;
74528;SDS011;63009;52.584;5.932;2022-09-03T03:29:15;5.57;;;2.63;;
74528;SDS011;63009;52.584;5.932;2022-09-03T03:31:44;5.60;;;2.75;;
74528;SDS011;63009;52.584;5.932;2022-09-03T03:34:09;6.38;;;3.10;;
74528;SDS011;63009;52.584;5.932;2022-09-03T03:36:35;6.82;;;3.10;;
74528;SDS011;63009;52.584;5.932;2022-09-03T03:39:00;5.18;;;2.35;;
74528;SDS011;63009;52.584;5.932;2022-09-03T03:41:30;6.70;;;2.72;;
74528;SDS011;63009;52.584;5.932;2022-09-03T03:43:59;6.85;;;3.05;;
74528;SDS011;63009;52.584;5.932;2022-09-03T03:46:33;7.03;;;3.33;;
74528;SDS011;63009;52.584;5.932;2022-09-03T03:49:00;6.38;;;2.75;;
74528;SDS011;63009;52.584;5.932;2022-09-03T03:51:25;7.40;;;3.25;;
74528;SDS011;63009;52.584;5.932;2022-09-03T03:53:55;6.50;;;3.38;;
74528;SDS011;63009;52.584;5.932;2022-09-03T03:56:21;7.82;;;3.00;;
74528;SDS011;63009;52.584;5.932;2022-09-03T03:58:47;7.43;;;3.05;;
74528;SDS011;63009;52.584;5.932;2022-09-03T04:01:17;6.18;;;2.60;;
74528;SDS011;63009;52.584;5.932;2022-09-03T04:03:45;8.45;;;3.40;;
74528;SDS011;63009;52.584;5.932;2022-09-03T04:06:11;8.15;;;2.72;;
74528;SDS011;63009;52.584;5.932;2022-09-03T04:08:42;6.60;;;3.05;;
74528;SDS011;63009;52.584;5.932;2022-09-03T04:11:09;5.50;;;2.20;;
74528;SDS011;63009;52.584;5.932;2022-09-03T04:13:38;7.47;;;3.00;;
74528;SDS011;63009;52.584;5.932;2022-09-03T04:16:06;6.32;;;3.25;;
74528;SDS011;63009;52.584;5.932;2022-09-03T04:21:09;7.30;;;2.83;;
74528;SDS011;63009;52.584;5.932;2022-09-03T04:23:40;7.93;;;2.80;;
74528;SDS011;63009;52.584;5.932;2022-09-03T04:26:08;6.47;;;2.90;;
74528;SDS011;63009;52.584;5.932;2022-09-03T04:28:36;12.85;;;2.83;;
74528;SDS011;63009;52.584;5.932;2022-09-03T04:31:02;6.05;;;2.50;;
74528;SDS011;63009;52.584;5.932;2022-09-03T04:33:32;6.90;;;2.72;;
74528;SDS011;63009;52.584;5.932;2022-09-03T04:36:06;6.00;;;2.40;;
74528;SDS011;63009;52.584;5.932;2022-09-03T04:38:35;6.78;;;2.40;;
74528;SDS011;63009;52.584;5.932;2022-09-03T04:41:03;6.38;;;2.88;;
74528;SDS011;63009;52.584;5.932;2022-09-03T04:43:29;7.43;;;2.42;;
74528;SDS011;63009;52.584;5.932;2022-09-03T04:45:56;6.70;;;3.17;;
74528;SDS011;63009;52.584;5.932;2022-09-03T04:48:22;7.05;;;2.70;;
74528;SDS011;63009;52.584;5.932;2022-09-03T04:50:48;6.68;;;2.70;;
74528;SDS011;63009;52.584;5.932;2022-09-03T04:53:13;7.27;;;3.73;;
74528;SDS011;63009;52.584;5.932;2022-09-03T04:55:38;5.80;;;2.58;;
74528;SDS011;63009;52.584;5.932;2022-09-03T04:58:04;6.70;;;2.50;;
74528;SDS011;63009;52.584;5.932;2022-09-03T05:00:31;7.28;;;2.90;;
74528;SDS011;63009;52.584;5.932;2022-09-03T05:02:59;6.50;;;2.53;;
74528;SDS011;63009;52.584;5.932;2022-09-03T05:05:25;8.32;;;2.90;;
74528;SDS011;63009;52.584;5.932;2022-09-03T05:07:50;7.87;;;2.63;;
74528;SDS011;63009;52.584;5.932;2022-09-03T05:10:15;6.63;;;2.30;;
74528;SDS011;63009;52.584;5.932;2022-09-03T05:12:44;6.78;;;2.90;;
74528;SDS011;63009;52.584;5.932;2022-09-03T05:15:21;6.15;;;2.95;;
74528;SDS011;63009;52.584;5.932;2022-09-03T05:17:47;6.30;;;2.40;;
74528;SDS011;63009;52.584;5.932;2022-09-03T05:20:12;6.20;;;2.90;;
74528;SDS011;63009;52.584;5.932;2022-09-03T05:22:38;6.18;;;2.72;;
74528;SDS011;63009;52.584;5.932;2022-09-03T05:25:04;6.75;;;2.90;;
74528;SDS011;63009;52.584;5.932;2022-09-03T05:27:30;7.03;;;2.70;;
74528;SDS011;63009;52.584;5.932;2022-09-03T05:29:56;7.40;;;2.95;;
74528;SDS011;63009;52.584;5.932;2022-09-03T05:32:22;5.93;;;2.60;;
74528;SDS011;63009;52.584;5.932;2022-09-03T05:34:49;6.30;;;2.80;;
74528;SDS011;63009;52.584;5.932;2022-09-03T05:37:16;8.48;;;2.67;;
74528;SDS011;63009;52.584;5.932;2022-09-03T05:39:41;7.38;;;2.80;;
74528;SDS011;63009;52.584;5.932;2022-09-03T05:42:07;6.10;;;2.70;;
74528;SDS011;63009;52.584;5.932;2022-09-03T05:44:32;5.70;;;2.30;;
74528;SDS011;63009;52.584;5.932;2022-09-03T05:46:58;7.75;;;2.35;;
74528;SDS011;63009;52.584;5.932;2022-09-03T05:49:25;8.32;;;2.75;;
74528;SDS011;63009;52.584;5.932;2022-09-03T05:51:53;5.72;;;2.50;;
74528;SDS011;63009;52.584;5.932;2022-09-03T05:56:43;6.37;;;2.37;;
74528;SDS011;63009;52.584;5.932;2022-09-03T05:59:09;6.93;;;2.55;;
74528;SDS011;63009;52.584;5.932;2022-09-03T06:04:07;6.15;;;2.40;;
74528;SDS011;63009;52.584;5.932;2022-09-03T06:06:36;6.60;;;2.55;;
74528;SDS011;63009;52.584;5.932;2022-09-03T06:09:04;6.57;;;3.20;;
74528;SDS011;63009;52.584;5.932;2022-09-03T06:11:32;6.88;;;2.72;;
74528;SDS011;63009;52.584;5.932;2022-09-03T06:13:59;5.88;;;2.60;;
74528;SDS011;63009;52.584;5.932;2022-09-03T06:16:26;6.57;;;2.53;;
74528;SDS011;63009;52.584;5.932;2022-09-03T06:18:53;6.22;;;2.22;;
74528;SDS011;63009;52.584;5.932;2022-09-03T06:21:19;6.03;;;2.03;;
74528;SDS011;63009;52.584;5.932;2022-09-03T06:23:52;5.15;;;2.08;;
74528;SDS011;63009;52.584;5.932;2022-09-03T06:26:22;5.65;;;2.22;;
74528;SDS011;63009;52.584;5.932;2022-09-03T06:28:48;6.13;;;2.40;;
74528;SDS011;63009;52.584;5.932;2022-09-03T06:31:14;7.13;;;2.20;;
74528;SDS011;63009;52.584;5.932;2022-09-03T06:33:41;7.45;;;2.80;;
74528;SDS011;63009;52.584;5.932;2022-09-03T06:36:09;6.32;;;2.08;;
74528;SDS011;63009;52.584;5.932;2022-09-03T06:38:36;6.40;;;2.20;;
74528;SDS011;63009;52.584;5.932;2022-09-03T06:41:03;8.20;;;2.33;;
74528;SDS011;63009;52.584;5.932;2022-09-03T06:45:58;4.80;;;1.73;;
74528;SDS011;63009;52.584;5.932;2022-09-03T06:48:26;6.75;;;1.75;;
74528;SDS011;63009;52.584;5.932;2022-09-03T06:50:58;6.22;;;2.33;;
74528;SDS011;63009;52.584;5.932;2022-09-03T06:53:25;6.13;;;2.20;;
74528;SDS011;63009;52.584;5.932;2022-09-03T06:55:56;6.43;;;1.90;;
74528;SDS011;63009;52.584;5.932;2022-09-03T06:58:23;7.43;;;2.10;;
74528;SDS011;63009;52.584;5.932;2022-09-03T07:00:52;5.47;;;2.03;;
74528;SDS011;63009;52.584;5.932;2022-09-03T07:03:18;5.35;;;1.85;;
74528;SDS011;63009;52.584;5.932;2022-09-03T07:05:44;12.23;;;2.20;;
74528;SDS011;63009;52.584;5.932;2022-09-03T07:08:10;5.60;;;2.05;;
74528;SDS011;63009;52.584;5.932;2022-09-03T07:10:36;4.25;;;1.63;;
74528;SDS011;63009;52.584;5.932;2022-09-03T07:13:02;9.57;;;3.08;;
74528;SDS011;63009;52.584;5.932;2022-09-03T07:15:27;6.43;;;1.80;;
74528;SDS011;63009;52.584;5.932;2022-09-03T07:17:53;5.10;;;1.80;;
74528;SDS011;63009;52.584;5.932;2022-09-03T07:20:18;4.47;;;1.73;;
74528;SDS011;63009;52.584;5.932;2022-09-03T07:22:44;5.35;;;1.80;;
74528;SDS011;63009;52.584;5.932;2022-09-03T07:25:10;5.50;;;1.92;;
74528;SDS011;63009;52.584;5.932;2022-09-03T07:27:35;7.50;;;2.58;;
74528;SDS011;63009;52.584;5.932;2022-09-03T07:30:00;5.75;;;2.15;;
74528;SDS011;63009;52.584;5.932;2022-09-03T07:32:27;5.00;;;1.98;;
74528;SDS011;63009;52.584;5.932;2022-09-03T07:34:53;5.05;;;1.85;;
74528;SDS011;63009;52.584;5.932;2022-09-03T07:37:18;5.07;;;1.67;;
74528;SDS011;63009;52.584;5.932;2022-09-03T07:39:44;5.30;;;1.98;;
74528;SDS011;63009;52.584;5.932;2022-09-03T07:42:10;5.95;;;1.90;;
74528;SDS011;63009;52.584;5.932;2022-09-03T07:44:36;6.20;;;2.25;;
74528;SDS011;63009;52.584;5.932;2022-09-03T07:47:01;7.18;;;1.98;;
74528;SDS011;63009;52.584;5.932;2022-09-03T07:49:27;5.63;;;1.85;;
74528;SDS011;63009;52.584;5.932;2022-09-03T07:51:53;5.20;;;1.75;;
74528;SDS011;63009;52.584;5.932;2022-09-03T07:54:19;8.07;;;2.60;;
74528;SDS011;63009;52.584;5.932;2022-09-03T07:56:45;5.68;;;1.60;;
74528;SDS011;63009;52.584;5.932;2022-09-03T07:59:11;6.22;;;1.95;;
74528;SDS011;63009;52.584;5.932;2022-09-03T08:01:36;5.05;;;1.75;;
74528;SDS011;63009;52.584;5.932;2022-09-03T08:04:02;8.40;;;1.85;;
74528;SDS011;63009;52.584;5.932;2022-09-03T08:06:31;5.90;;;1.88;;
74528;SDS011;63009;52.584;5.932;2022-09-03T08:09:01;6.15;;;1.58;;
74528;SDS011;63009;52.584;5.932;2022-09-03T08:11:29;7.53;;;2.63;;
74528;SDS011;63009;52.584;5.932;2022-09-03T08:13:56;6.45;;;2.10;;
74528;SDS011;63009;52.584;5.932;2022-09-03T08:16:30;7.35;;;2.50;;
74528;SDS011;63009;52.584;5.932;2022-09-03T08:18:57;6.22;;;1.75;;
74528;SDS011;63009;52.584;5.932;2022-09-03T08:21:23;6.50;;;2.13;;
74528;SDS011;63009;52.584;5.932;2022-09-03T08:23:51;4.43;;;1.70;;
74528;SDS011;63009;52.584;5.932;2022-09-03T08:26:19;5.10;;;1.80;;
74528;SDS011;63009;52.584;5.932;2022-09-03T08:28:45;4.43;;;1.70;;
74528;SDS011;63009;52.584;5.932;2022-09-03T08:31:18;4.13;;;1.38;;
74528;SDS011;63009;52.584;5.932;2022-09-03T08:33:49;4.97;;;1.85;;
74528;SDS011;63009;52.584;5.932;2022-09-03T08:36:17;3.97;;;1.60;;
74528;SDS011;63009;52.584;5.932;2022-09-03T08:38:47;6.05;;;1.75;;
74528;SDS011;63009;52.584;5.932;2022-09-03T08:43:53;5.93;;;1.63;;
74528;SDS011;63009;52.584;5.932;2022-09-03T08:46:37;3.70;;;1.65;;
74528;SDS011;63009;52.584;5.932;2022-09-03T08:49:12;3.72;;;2.00;;
74528;SDS011;63009;52.584;5.932;2022-09-03T08:51:40;4.57;;;1.55;;
74528;SDS011;63009;52.584;5.932;2022-09-03T08:54:09;3.97;;;1.60;;
74528;SDS011;63009;52.584;5.932;2022-09-03T08:56:37;7.38;;;1.70;;
74528;SDS011;63009;52.584;5.932;2022-09-03T08:59:05;5.38;;;1.73;;
74528;SDS011;63009;52.584;5.932;2022-09-03T09:04:47;5.28;;;1.80;;
74528;SDS011;63009;52.584;5.932;2022-09-03T09:07:31;5.00;;;1.70;;
74528;SDS011;63009;52.584;5.932;2022-09-03T09:13:02;6.35;;;1.58;;
74528;SDS011;63009;52.584;5.932;2022-09-03T09:21:30;4.80;;;1.65;;
74528;SDS011;63009;52.584;5.932;2022-09-03T09:24:06;6.75;;;1.60;;
74528;SDS011;63009;52.584;5.932;2022-09-03T09:26:45;5.70;;;1.63;;
74528;SDS011;63009;52.584;5.932;2022-09-03T09:29:12;5.07;;;1.58;;
74528;SDS011;63009;52.584;5.932;2022-09-03T09:31:39;6.78;;;1.63;;
74528;SDS011;63009;52.584;5.932;2022-09-03T09:34:09;6.43;;;2.13;;
74528;SDS011;63009;52.584;5.932;2022-09-03T09:36:44;5.13;;;1.63;;
74528;SDS011;63009;52.584;5.932;2022-09-03T09:39:19;5.30;;;1.73;;
74528;SDS011;63009;52.584;5.932;2022-09-03T09:44:39;7.18;;;1.70;;
74528;SDS011;63009;52.584;5.932;2022-09-03T09:47:07;4.32;;;1.65;;
74528;SDS011;63009;52.584;5.932;2022-09-03T09:49:59;5.22;;;1.50;;
74528;SDS011;63009;52.584;5.932;2022-09-03T09:52:25;4.68;;;1.80;;
74528;SDS011;63009;52.584;5.932;2022-09-03T09:55:05;5.18;;;1.85;;
74528;SDS011;63009;52.584;5.932;2022-09-03T09:57:32;7.55;;;1.70;;
74528;SDS011;63009;52.584;5.932;2022-09-03T10:00:03;9.15;;;2.00;;
74528;SDS011;63009;52.584;5.932;2022-09-03T10:02:37;4.30;;;1.50;;
74528;SDS011;63009;52.584;5.932;2022-09-03T10:05:19;6.78;;;2.05;;
74528;SDS011;63009;52.584;5.932;2022-09-03T10:08:20;6.93;;;1.80;;
74528;SDS011;63009;52.584;5.932;2022-09-03T10:13:23;6.25;;;1.67;;
74528;SDS011;63009;52.584;5.932;2022-09-03T10:16:01;4.28;;;1.52;;
74528;SDS011;63009;52.584;5.932;2022-09-03T10:21:11;4.70;;;1.70;;
74528;SDS011;63009;52.584;5.932;2022-09-03T10:23:58;5.38;;;1.70;;
74528;SDS011;63009;52.584;5.932;2022-09-03T10:26:31;5.72;;;1.63;;
74528;SDS011;63009;52.584;5.932;2022-09-03T10:28:58;7.00;;;1.45;;
74528;SDS011;63009;52.584;5.932;2022-09-03T10:31:37;4.90;;;1.80;;
74528;SDS011;63009;52.584;5.932;2022-09-03T10:34:31;6.40;;;1.58;;
74528;SDS011;63009;52.584;5.932;2022-09-03T10:45:59;9.48;;;1.73;;
74528;SDS011;63009;52.584;5.932;2022-09-03T10:51:34;6.18;;;1.92;;
74528;SDS011;63009;52.584;5.932;2022-09-03T10:57:21;5.47;;;1.83;;
74528;SDS011;63009;52.584;5.932;2022-09-03T11:02:28;6.70;;;1.80;;
74528;SDS011;63009;52.584;5.932;2022-09-03T11:05:11;5.68;;;1.60;;
74528;SDS011;63009;52.584;5.932;2022-09-03T11:10:29;5.90;;;2.22;;
74528;SDS011;63009;52.584;5.932;2022-09-03T11:15:42;7.13;;;1.70;;
74528;SDS011;63009;52.584;5.932;2022-09-03T11:18:33;4.75;;;1.42;;
74528;SDS011;63009;52.584;5.932;2022-09-03T11:21:05;7.68;;;1.98;;
74528;SDS011;63009;52.584;5.932;2022-09-03T11:23:37;4.35;;;1.60;;
74528;SDS011;63009;52.584;5.932;2022-09-03T11:26:10;4.47;;;1.60;;
74528;SDS011;63009;52.584;5.932;2022-09-03T11:29:00;5.10;;;1.60;;
74528;SDS011;63009;52.584;5.932;2022-09-03T11:37:16;5.88;;;1.80;;
74528;SDS011;63009;52.584;5.932;2022-09-03T11:39:52;4.38;;;1.58;;
74528;SDS011;63009;52.584;5.932;2022-09-03T11:42:28;5.53;;;1.70;;
74528;SDS011;63009;52.584;5.932;2022-09-03T11:44:59;5.25;;;1.67;;
74528;SDS011;63009;52.584;5.932;2022-09-03T11:47:41;4.60;;;1.50;;
74528;SDS011;63009;52.584;5.932;2022-09-03T11:50:29;5.72;;;1.60;;
74528;SDS011;63009;52.584;5.932;2022-09-03T11:53:08;4.78;;;1.88;;
74528;SDS011;63009;52.584;5.932;2022-09-03T11:58:32;4.95;;;1.60;;
74528;SDS011;63009;52.584;5.932;2022-09-03T12:01:01;4.68;;;1.60;;
74528;SDS011;63009;52.584;5.932;2022-09-03T12:03:29;5.30;;;1.67;;
74528;SDS011;63009;52.584;5.932;2022-09-03T12:14:28;5.38;;;1.80;;
74528;SDS011;63009;52.584;5.932;2022-09-03T12:20:36;5.30;;;1.73;;
74528;SDS011;63009;52.584;5.932;2022-09-03T12:23:01;5.63;;;1.63;;
74528;SDS011;63009;52.584;5.932;2022-09-03T12:25:27;8.25;;;2.33;;
74528;SDS011;63009;52.584;5.932;2022-09-03T12:27:53;6.70;;;1.75;;
74528;SDS011;63009;52.584;5.932;2022-09-03T12:30:20;5.40;;;1.88;;
74528;SDS011;63009;52.584;5.932;2022-09-03T12:32:47;4.18;;;1.38;;
74528;SDS011;63009;52.584;5.932;2022-09-03T12:35:20;7.03;;;1.73;;
74528;SDS011;63009;52.584;5.932;2022-09-03T12:37:50;4.28;;;1.58;;
74528;SDS011;63009;52.584;5.932;2022-09-03T12:40:17;4.68;;;1.60;;
74528;SDS011;63009;52.584;5.932;2022-09-03T12:42:45;5.03;;;1.60;;
74528;SDS011;63009;52.584;5.932;2022-09-03T12:45:11;6.40;;;1.40;;
74528;SDS011;63009;52.584;5.932;2022-09-03T12:47:40;5.00;;;1.58;;
74528;SDS011;63009;52.584;5.932;2022-09-03T12:55:17;5.57;;;1.60;;
74528;SDS011;63009;52.584;5.932;2022-09-03T12:58:13;6.68;;;1.50;;
74528;SDS011;63009;52.584;5.932;2022-09-03T13:00:56;4.38;;;1.75;;
74528;SDS011;63009;52.584;5.932;2022-09-03T13:03:30;3.20;;;1.45;;
74528;SDS011;63009;52.584;5.932;2022-09-03T13:06:09;5.57;;;1.48;;
74528;SDS011;63009;52.584;5.932;2022-09-03T13:09:00;4.40;;;1.58;;
74528;SDS011;63009;52.584;5.932;2022-09-03T13:11:31;5.20;;;1.60;;
74528;SDS011;63009;52.584;5.932;2022-09-03T13:14:07;4.53;;;1.45;;
74528;SDS011;63009;52.584;5.932;2022-09-03T13:29:46;5.70;;;1.70;;
74528;SDS011;63009;52.584;5.932;2022-09-03T13:32:38;5.38;;;1.50;;
74528;SDS011;63009;52.584;5.932;2022-09-03T13:35:18;4.53;;;1.63;;
74528;SDS011;63009;52.584;5.932;2022-09-03T13:38:24;5.88;;;1.95;;
74528;SDS011;63009;52.584;5.932;2022-09-03T13:40:58;4.88;;;1.50;;
74528;SDS011;63009;52.584;5.932;2022-09-03T13:46:27;4.25;;;1.48;;
74528;SDS011;63009;52.584;5.932;2022-09-03T13:48:59;5.30;;;2.00;;
74528;SDS011;63009;52.584;5.932;2022-09-03T13:51:55;4.05;;;1.52;;
74528;SDS011;63009;52.584;5.932;2022-09-03T13:54:29;4.88;;;1.88;;
74528;SDS011;63009;52.584;5.932;2022-09-03T13:57:04;4.03;;;1.52;;
74528;SDS011;63009;52.584;5.932;2022-09-03T13:59:38;5.93;;;1.95;;
74528;SDS011;63009;52.584;5.932;2022-09-03T14:02:11;4.88;;;1.70;;
74528;SDS011;63009;52.584;5.932;2022-09-03T14:10:09;5.60;;;1.70;;
74528;SDS011;63009;52.584;5.932;2022-09-03T14:15:46;6.10;;;1.55;;
74528;SDS011;63009;52.584;5.932;2022-09-03T14:21:07;5.70;;;1.65;;
74528;SDS011;63009;52.584;5.932;2022-09-03T14:26:26;4.18;;;1.55;;
74528;SDS011;63009;52.584;5.932;2022-09-03T14:29:01;5.35;;;1.75;;
74528;SDS011;63009;52.584;5.932;2022-09-03T14:36:59;4.93;;;2.03;;
74528;SDS011;63009;52.584;5.932;2022-09-03T14:39:53;6.90;;;1.95;;
74528;SDS011;63009;52.584;5.932;2022-09-03T14:50:38;4.80;;;1.73;;
74528;SDS011;63009;52.584;5.932;2022-09-03T14:56:21;5.28;;;1.80;;
74528;SDS011;63009;52.584;5.932;2022-09-03T15:02:05;8.75;;;3.05;;
74528;SDS011;63009;52.584;5.932;2022-09-03T15:07:45;6.63;;;1.70;;
74528;SDS011;63009;52.584;5.932;2022-09-03T15:10:29;6.53;;;1.60;;
74528;SDS011;63009;52.584;5.932;2022-09-03T15:13:20;6.45;;;1.73;;
74528;SDS011;63009;52.584;5.932;2022-09-03T15:21:39;7.25;;;1.85;;
74528;SDS011;63009;52.584;5.932;2022-09-03T15:24:21;5.32;;;1.65;;
74528;SDS011;63009;52.584;5.932;2022-09-03T15:37:56;5.38;;;1.60;;
74528;SDS011;63009;52.584;5.932;2022-09-03T15:40:30;5.40;;;1.60;;
74528;SDS011;63009;52.584;5.932;2022-09-03T15:43:02;4.32;;;1.55;;
74528;SDS011;63009;52.584;5.932;2022-09-03T15:56:10;4.13;;;1.40;;
74528;SDS011;63009;52.584;5.932;2022-09-03T15:58:56;4.93;;;1.63;;
74528;SDS011;63009;52.584;5.932;2022-09-03T16:04:04;4.20;;;1.60;;
74528;SDS011;63009;52.584;5.932;2022-09-03T16:06:42;8.93;;;1.80;;
74528;SDS011;63009;52.584;5.932;2022-09-03T16:14:50;4.65;;;1.40;;
74528;SDS011;63009;52.584;5.932;2022-09-03T16:20:31;5.00;;;1.65;;
74528;SDS011;63009;52.584;5.932;2022-09-03T16:23:22;4.72;;;1.50;;
74528;SDS011;63009;52.584;5.932;2022-09-03T16:34:09;6.20;;;1.60;;
74528;SDS011;63009;52.584;5.932;2022-09-03T16:42:33;6.50;;;1.80;;
74528;SDS011;63009;52.584;5.932;2022-09-03T16:45:13;4.78;;;1.70;;
74528;SDS011;63009;52.584;5.932;2022-09-03T17:01:51;4.20;;;2.00;;
74528;SDS011;63009;52.584;5.932;2022-09-03T17:07:49;5.20;;;1.60;;
74528;SDS011;63009;52.584;5.932;2022-09-03T17:10:09;4.70;;;1.67;;
74528;SDS011;63009;52.584;5.932;2022-09-03T17:15:26;5.15;;;1.90;;
74528;SDS011;63009;52.584;5.932;2022-09-03T17:23:24;4.95;;;1.52;;
74528;SDS011;63009;52.584;5.932;2022-09-03T17:26:16;5.75;;;2.05;;
74528;SDS011;63009;52.584;5.932;2022-09-03T17:29:10;5.97;;;1.70;;
74528;SDS011;63009;52.584;5.932;2022-09-03T17:35:02;5.40;;;1.70;;
74528;SDS011;63009;52.584;5.932;2022-09-03T17:46:20;6.53;;;1.83;;
74528;SDS011;63009;52.584;5.932;2022-09-03T17:48:51;4.50;;;1.83;;
74528;SDS011;63009;52.584;5.932;2022-09-03T17:57:04;7.50;;;2.40;;
74528;SDS011;63009;52.584;5.932;2022-09-03T18:00:02;6.97;;;2.10;;
74528;SDS011;63009;52.584;5.932;2022-09-03T18:02:33;6.50;;;1.92;;
74528;SDS011;63009;52.584;5.932;2022-09-03T18:12:57;6.35;;;2.25;;
74528;SDS011;63009;52.584;5.932;2022-09-03T18:15:36;7.13;;;2.22;;
74528;SDS011;63009;52.584;5.932;2022-09-03T18:18:18;6.53;;;1.90;;
74528;SDS011;63009;52.584;5.932;2022-09-03T18:20:56;8.25;;;2.40;;
74528;SDS011;63009;52.584;5.932;2022-09-03T18:23:51;6.32;;;2.25;;
74528;SDS011;63009;52.584;5.932;2022-09-03T18:27:06;6.30;;;2.20;;
74528;SDS011;63009;52.584;5.932;2022-09-03T18:32:46;8.93;;;3.38;;
74528;SDS011;63009;52.584;5.932;2022-09-03T18:35:31;8.18;;;3.33;;
74528;SDS011;63009;52.584;5.932;2022-09-03T18:38:21;7.15;;;2.92;;
74528;SDS011;63009;52.584;5.932;2022-09-03T18:53:17;7.60;;;2.72;;
74528;SDS011;63009;52.584;5.932;2022-09-03T18:56:29;7.57;;;2.45;;
74528;SDS011;63009;52.584;5.932;2022-09-03T19:02:45;6.30;;;2.50;;
74528;SDS011;63009;52.584;5.932;2022-09-03T19:21:29;7.47;;;3.15;;
74528;SDS011;63009;52.584;5.932;2022-09-03T19:24:20;7.25;;;2.90;;
74528;SDS011;63009;52.584;5.932;2022-09-03T19:27:13;6.60;;;2.60;;
74528;SDS011;63009;52.584;5.932;2022-09-03T19:33:08;7.90;;;2.95;;
74528;SDS011;63009;52.584;5.932;2022-09-03T19:42:01;7.30;;;2.80;;
74528;SDS011;63009;52.584;5.932;2022-09-03T19:45:10;7.95;;;3.20;;
74528;SDS011;63009;52.584;5.932;2022-09-03T19:51:16;9.00;;;3.00;;
74528;SDS011;63009;52.584;5.932;2022-09-03T19:54:04;6.95;;;2.60;;
74528;SDS011;63009;52.584;5.932;2022-09-03T19:56:51;8.40;;;3.35;;
74528;SDS011;63009;52.584;5.932;2022-09-03T19:59:38;6.90;;;3.00;;
74528;SDS011;63009;52.584;5.932;2022-09-03T20:02:24;7.03;;;3.25;;
74528;SDS011;63009;52.584;5.932;2022-09-03T20:05:18;7.43;;;3.10;;
74528;SDS011;63009;52.584;5.932;2022-09-03T20:08:04;8.02;;;2.85;;
74528;SDS011;63009;52.584;5.932;2022-09-03T20:10:50;8.60;;;2.72;;
74528;SDS011;63009;52.584;5.932;2022-09-03T20:13:18;7.20;;;3.08;;
74528;SDS011;63009;52.584;5.932;2022-09-03T20:21:19;8.30;;;3.70;;
74528;SDS011;63009;52.584;5.932;2022-09-03T20:37:37;8.50;;;3.22;;
74528;SDS011;63009;52.584;5.932;2022-09-03T20:43:02;7.57;;;3.75;;
74528;SDS011;63009;52.584;5.932;2022-09-03T20:51:03;8.35;;;4.30;;
74528;SDS011;63009;52.584;5.932;2022-09-03T20:59:42;7.90;;;3.50;;
74528;SDS011;63009;52.584;5.932;2022-09-03T21:02:36;13.13;;;7.88;;
74528;SDS011;63009;52.584;5.932;2022-09-03T21:05:39;10.38;;;6.85;;
74528;SDS011;63009;52.584;5.932;2022-09-03T21:25:10;8.05;;;4.15;;
74528;SDS011;63009;52.584;5.932;2022-09-03T21:27:42;9.05;;;4.07;;
74528;SDS011;63009;52.584;5.932;2022-09-03T21:30:13;18.67;;;3.70;;
74528;SDS011;63009;52.584;5.932;2022-09-03T21:35:29;11.82;;;5.45;;
74528;SDS011;63009;52.584;5.932;2022-09-03T21:40:27;11.32;;;5.55;;
74528;SDS011;63009;52.584;5.932;2022-09-03T21:48:10;9.32;;;5.05;;
74528;SDS011;63009;52.584;5.932;2022-09-03T21:50:48;10.00;;;5.32;;
74528;SDS011;63009;52.584;5.932;2022-09-03T21:53:39;9.70;;;4.22;;
74528;SDS011;63009;52.584;5.932;2022-09-03T21:58:56;9.10;;;5.35;;
74528;SDS011;63009;52.584;5.932;2022-09-03T22:01:28;9.02;;;5.00;;
74528;SDS011;63009;52.584;5.932;2022-09-03T22:04:06;8.10;;;4.75;;
74528;SDS011;63009;52.584;5.932;2022-09-03T22:06:36;8.67;;;4.50;;